Time;durP1;ratioP1;P1;durP2;ratioP2;P2;SDS_P1;SDS_P2;PMS_P1;PMS_P2;Temp;Humidity;BMP_temperature;BMP_pressure;BME280_temperature;BME280_humidity;BME280_pressure;Samples;Min_cycle;Max_cycle;Signal;HPM_P1;HPM_P2
2024/01/18 00:02:22;;;;;;;35.10;16.13;;;0.70;1.00;;;;;;5248623;28;20028;-30
2024/01/18 00:04:56;;;;;;;32.58;15.38;;;0.70;1.00;;;;;;5268994;28;20346;-30
2024/01/18 00:07:32;;;;;;;36.15;16.27;;;0.80;1.00;;;;;;5269803;28;20229;-30
2024/01/18 00:10:04;;;;;;;32.42;15.55;;;1.00;1.00;;;;;;5269074;28;20040;-31
2024/01/18 00:12:41;;;;;;;29.38;14.35;;;1.10;1.00;;;;;;5270696;28;20046;-31
2024/01/18 00:15:15;;;;;;;29.40;14.68;;;1.30;1.00;;;;;;5248149;28;20354;-31
2024/01/18 00:17:51;;;;;;;30.27;14.48;;;1.40;1.00;;;;;;5251981;28;20028;-31
2024/01/18 00:20:24;;;;;;;32.78;15.38;;;1.50;1.00;;;;;;5270636;28;20347;-31
2024/01/18 00:22:55;;;;;;;31.30;16.45;;;1.60;1.00;;;;;;5267339;28;20035;-31
2024/01/18 00:25:29;;;;;;;29.88;15.13;;;1.70;1.00;;;;;;5270705;28;20217;-33
2024/01/18 00:28:03;;;;;;;32.17;15.75;;;1.80;1.00;;;;;;5270109;28;20042;-31
2024/01/18 00:30:34;;;;;;;31.88;16.23;;;1.80;1.00;;;;;;5266407;28;20038;-31
2024/01/18 00:33:08;;;;;;;29.98;14.60;;;1.90;1.00;;;;;;5267778;28;20046;-31
2024/01/18 00:35:39;;;;;;;32.13;15.88;;;1.90;1.00;;;;;;5251477;28;20329;-30
2024/01/18 00:38:14;;;;;;;30.80;15.60;;;2.00;1.00;;;;;;5269671;28;20309;-30
2024/01/18 00:40:50;;;;;;;27.67;14.35;;;2.10;1.00;;;;;;5270762;28;20036;-30
2024/01/18 00:43:22;;;;;;;34.65;15.85;;;2.10;1.00;;;;;;5269913;28;20036;-30
2024/01/18 00:45:53;;;;;;;32.90;15.35;;;2.10;1.00;;;;;;5231207;28;20054;-30
2024/01/18 00:48:25;;;;;;;26.15;14.88;;;2.00;1.00;;;;;;5258546;28;20373;-30
2024/01/18 00:50:56;;;;;;;30.17;14.82;;;2.00;1.00;;;;;;5261349;28;20280;-30
2024/01/18 00:53:30;;;;;;;29.50;14.48;;;2.00;1.00;;;;;;5268628;28;20031;-31
2024/01/18 00:56:02;;;;;;;30.88;15.63;;;2.00;1.00;;;;;;5268877;28;20050;-31
2024/01/18 00:58:33;;;;;;;27.98;13.45;;;2.00;1.00;;;;;;5240921;28;20363;-31
2024/01/18 01:01:05;;;;;;;25.67;14.57;;;2.00;1.00;;;;;;5253514;28;20039;-31
2024/01/18 01:03:41;;;;;;;35.95;16.40;;;2.00;1.00;;;;;;5268039;28;20024;-31
2024/01/18 01:06:14;;;;;;;31.10;14.50;;;2.10;1.00;;;;;;5269375;28;20032;-31
2024/01/18 01:08:48;;;;;;;28.10;14.07;;;2.20;1.00;;;;;;5269084;28;20047;-31
2024/01/18 01:11:20;;;;;;;31.98;16.75;;;2.20;1.00;;;;;;5268269;28;20038;-32
2024/01/18 01:13:54;;;;;;;30.42;14.80;;;2.20;1.00;;;;;;5263657;28;20034;-32
2024/01/18 01:16:25;;;;;;;33.33;15.98;;;2.20;1.00;;;;;;5248112;28;20032;-31
2024/01/18 01:18:56;;;;;;;47.25;22.92;;;2.20;1.00;;;;;;5268981;28;20042;-30
2024/01/18 01:21:30;;;;;;;45.88;26.23;;;2.00;1.00;;;;;;5260485;28;20047;-30
2024/01/18 01:24:02;;;;;;;50.30;26.27;;;1.80;1.00;;;;;;5265270;28;20028;-30
2024/01/18 01:26:33;;;;;;;48.80;24.77;;;1.80;1.00;;;;;;5268608;28;20028;-31
2024/01/18 01:29:07;;;;;;;48.38;22.30;;;1.80;1.00;;;;;;5268709;28;20288;-31
2024/01/18 01:31:48;;;;;;;44.35;21.38;;;1.70;1.00;;;;;;5245910;28;20058;-31
2024/01/18 01:34:19;;;;;;;34.17;16.98;;;1.80;1.00;;;;;;5252038;28;20220;-31
2024/01/18 01:36:51;;;;;;;33.67;16.33;;;1.80;1.00;;;;;;5268912;28;20035;-30
2024/01/18 01:39:28;;;;;;;38.30;16.77;;;1.90;1.00;;;;;;5269549;28;20234;-30
2024/01/18 01:41:59;;;;;;;28.52;14.40;;;2.00;1.00;;;;;;5251342;28;20032;-30
2024/01/18 01:44:33;;;;;;;29.83;15.80;;;2.00;1.00;;;;;;5250265;28;20285;-30
2024/01/18 01:47:07;;;;;;;;;;;2.10;1.00;;;;;;5264625;28;20428;-30
2024/01/18 01:49:39;;;;;;;26.80;14.48;;;2.10;1.00;;;;;;5249546;28;20211;-31
2024/01/18 01:52:11;;;;;;;31.38;14.43;;;2.10;1.00;;;;;;5251003;28;20042;-30
2024/01/18 01:54:46;;;;;;;31.65;14.68;;;2.10;1.00;;;;;;5273831;28;20024;-30
2024/01/18 01:57:19;;;;;;;34.53;15.98;;;2.00;1.00;;;;;;5274301;28;20032;-30
2024/01/18 01:59:55;;;;;;;30.48;15.57;;;2.00;1.00;;;;;;5271811;28;20030;-31
2024/01/18 02:02:28;;;;;;;29.60;15.25;;;1.90;1.00;;;;;;5269835;28;20036;-31
2024/01/18 02:05:00;;;;;;;26.55;14.55;;;2.00;1.00;;;;;;5273681;28;20509;-31
2024/01/18 02:07:44;;;;;;;27.70;14.68;;;2.00;1.00;;;;;;5274707;28;20032;-31
2024/01/18 02:10:17;;;;;;;28.42;13.45;;;2.10;1.00;;;;;;5274270;28;20046;-31
2024/01/18 02:12:56;;;;;;;27.17;14.20;;;2.20;1.00;;;;;;5275842;28;20044;-31
2024/01/18 02:15:31;;;;;;;23.73;13.60;;;2.20;1.00;;;;;;5272684;28;20034;-31
2024/01/18 02:18:04;;;;;;;25.52;13.52;;;2.30;1.00;;;;;;5275807;28;20040;-31
2024/01/18 02:20:36;;;;;;;28.07;15.30;;;2.30;1.00;;;;;;5276388;28;20034;-32
2024/01/18 02:23:10;;;;;;;27.45;14.70;;;2.40;1.00;;;;;;5273924;28;20260;-32
2024/01/18 02:25:42;;;;;;;32.50;14.02;;;2.50;1.00;;;;;;5274193;28;20303;-31
2024/01/18 02:28:16;;;;;;;31.63;14.82;;;2.60;1.00;;;;;;5274619;28;20032;-31
2024/01/18 02:30:51;;;;;;;30.60;14.65;;;2.60;1.00;;;;;;5254277;28;20035;-31
2024/01/18 02:33:25;;;;;;;29.30;14.50;;;2.70;1.00;;;;;;5265586;28;20344;-31
2024/01/18 02:35:56;;;;;;;27.05;15.27;;;2.70;1.00;;;;;;5276566;28;20036;-30
2024/01/18 02:38:33;;;;;;;29.83;15.88;;;2.50;1.00;;;;;;5274751;28;20047;-31
2024/01/18 02:41:04;;;;;;;26.25;13.98;;;2.30;1.00;;;;;;5274647;28;20348;-30
2024/01/18 02:43:37;;;;;;;29.40;14.18;;;2.10;1.00;;;;;;5256190;28;20269;-31
2024/01/18 02:46:15;;;;;;;25.90;13.52;;;2.00;1.00;;;;;;5270066;28;20036;-31
2024/01/18 02:48:49;;;;;;;26.02;14.43;;;1.80;1.00;;;;;;5274253;28;20228;-31
2024/01/18 02:51:20;;;;;;;26.42;14.85;;;1.80;1.00;;;;;;5268994;28;20212;-31
2024/01/18 02:53:51;;;;;;;25.38;13.60;;;1.80;1.00;;;;;;5268662;28;20027;-30
2024/01/18 02:56:26;;;;;;;26.98;14.35;;;1.80;1.00;;;;;;5274088;28;20240;-32
2024/01/18 02:58:57;;;;;;;26.98;14.25;;;1.90;1.00;;;;;;5273873;28;20024;-31
2024/01/18 03:01:29;;;;;;;31.00;14.23;;;1.90;1.00;;;;;;5270631;28;20038;-31
2024/01/18 03:04:01;;;;;;;28.35;13.93;;;2.00;1.00;;;;;;5273043;28;20271;-31
2024/01/18 03:06:36;;;;;;;26.67;13.98;;;2.10;1.00;;;;;;5249806;28;20074;-31
2024/01/18 03:09:07;;;;;;;29.48;14.95;;;2.10;1.00;;;;;;5271804;28;20032;-32
2024/01/18 03:11:38;;;;;;;29.77;14.80;;;2.10;1.00;;;;;;5253274;28;20429;-31
2024/01/18 03:14:15;;;;;;;27.00;14.25;;;2.00;1.00;;;;;;5272267;28;20035;-31
2024/01/18 03:16:49;;;;;;;27.95;15.77;;;2.00;1.00;;;;;;5268477;28;20042;-31
2024/01/18 03:19:24;;;;;;;27.17;13.77;;;2.00;1.00;;;;;;5270083;28;20038;-32
2024/01/18 03:22:00;;;;;;;26.58;14.05;;;1.90;1.00;;;;;;5257011;28;20035;-32
2024/01/18 03:24:31;;;;;;;23.33;12.07;;;2.00;99.90;;;;;;5268272;28;20038;-31
2024/01/18 03:27:05;;;;;;;27.73;14.00;;;2.20;99.90;;;;;;5272064;28;20038;-31
2024/01/18 03:29:38;;;;;;;21.05;12.60;;;2.20;99.90;;;;;;5271220;27;20036;-32
2024/01/18 03:32:10;;;;;;;25.73;12.10;;;2.30;1.00;;;;;;5268480;28;20066;-32
2024/01/18 03:34:41;;;;;;;25.48;13.35;;;2.40;1.00;;;;;;5271107;28;20220;-32
2024/01/18 03:37:15;;;;;;;25.20;14.32;;;2.50;1.00;;;;;;5270333;28;20333;-32
2024/01/18 03:39:46;;;;;;;26.67;13.45;;;2.60;1.00;;;;;;5251795;28;20020;-31
2024/01/18 03:42:18;;;;;;;25.40;13.45;;;2.60;99.90;;;;;;5270279;28;20203;-31
2024/01/18 03:44:49;;;;;;;21.30;12.15;;;2.60;99.90;;;;;;5252548;28;20251;-31
2024/01/18 03:47:20;;;;;;;22.85;13.43;;;2.60;99.90;;;;;;5268804;28;20036;-31
2024/01/18 03:49:56;;;;;;;24.92;13.95;;;2.60;99.90;;;;;;5271382;28;20040;-30
2024/01/18 03:52:28;;;;;;;27.17;12.63;;;2.60;99.90;;;;;;5264632;28;20035;-31
2024/01/18 03:54:59;;;;;;;24.80;12.50;;;2.60;99.90;;;;;;5271146;28;20042;-33
2024/01/18 03:57:34;;;;;;;25.90;12.63;;;2.50;99.90;;;;;;5237529;28;20035;-32
2024/01/18 04:00:06;;;;;;;24.60;13.27;;;2.40;99.90;;;;;;5269749;28;20051;-32
2024/01/18 04:02:37;;;;;;;25.60;13.07;;;2.40;1.00;;;;;;5269599;28;20040;-31
2024/01/18 04:05:16;;;;;;;25.75;12.73;;;2.30;99.90;;;;;;5252821;28;20236;-33
2024/01/18 04:07:52;;;;;;;24.30;13.55;;;2.30;1.00;;;;;;5272492;28;20038;-33
2024/01/18 04:10:26;;;;;;;24.90;13.43;;;2.30;1.00;;;;;;5257348;28;20028;-32
2024/01/18 04:12:57;;;;;;;25.88;13.20;;;2.30;1.00;;;;;;5271066;28;20036;-33
2024/01/18 04:15:29;;;;;;;26.38;13.50;;;2.20;1.00;;;;;;5250256;28;20386;-32
2024/01/18 04:18:05;;;;;;;26.00;13.27;;;2.00;1.00;;;;;;5269149;28;20187;-32
2024/01/18 04:20:39;;;;;;;26.65;12.95;;;2.00;1.00;;;;;;5269429;28;20024;-34
2024/01/18 04:23:13;;;;;;;24.05;12.45;;;2.10;1.00;;;;;;5272202;28;20024;-34
2024/01/18 04:25:45;;;;;;;24.95;13.02;;;2.10;1.00;;;;;;5272080;28;20024;-33
2024/01/18 04:28:16;;;;;;;27.02;13.70;;;2.20;1.00;;;;;;5253547;28;20256;-33
2024/01/18 04:30:48;;;;;;;28.55;15.48;;;2.30;1.00;;;;;;5250248;28;20321;-33
2024/01/18 04:33:19;;;;;;;25.65;13.70;;;2.10;1.00;;;;;;5251875;28;20047;-33
2024/01/18 04:35:58;;;;;;;26.40;14.23;;;2.00;1.00;;;;;;5271807;28;20223;-33
2024/01/18 04:38:29;;;;;;;31.40;13.88;;;2.00;1.00;;;;;;5271036;28;20043;-33
2024/01/18 04:41:03;;;;;;;24.23;13.68;;;2.10;1.00;;;;;;5271674;28;20483;-33
2024/01/18 04:43:34;;;;;;;28.15;13.82;;;2.20;1.00;;;;;;5253919;28;20039;-33
2024/01/18 04:46:05;;;;;;;20.27;12.38;;;2.30;1.00;;;;;;5250426;28;20036;-33
2024/01/18 04:48:40;;;;;;;29.25;15.93;;;2.40;1.00;;;;;;5270442;28;20030;-33
2024/01/18 04:51:12;;;;;;;31.42;14.10;;;2.50;1.00;;;;;;5253264;28;20032;-33
2024/01/18 04:53:43;;;;;;;26.23;13.73;;;2.50;1.00;;;;;;5270432;28;20042;-35
2024/01/18 04:56:18;;;;;;;25.20;12.82;;;2.60;1.00;;;;;;5268139;28;20046;-33
2024/01/18 04:58:49;;;;;;;29.00;13.57;;;2.50;1.00;;;;;;5267548;28;20312;-33
2024/01/18 05:01:22;;;;;;;25.45;14.35;;;2.60;1.00;;;;;;5267802;28;20522;-33
2024/01/18 05:03:56;;;;;;;25.52;13.85;;;2.60;1.00;;;;;;5250263;28;20044;-33
2024/01/18 05:06:32;;;;;;;23.27;12.70;;;2.60;1.00;;;;;;5270173;28;20034;-33
2024/01/18 05:09:03;;;;;;;23.67;11.88;;;2.60;1.00;;;;;;5271507;28;20346;-33
2024/01/18 05:11:40;;;;;;;23.30;12.68;;;2.60;1.00;;;;;;5270281;28;20038;-34
2024/01/18 05:14:13;;;;;;;23.70;13.65;;;2.60;1.00;;;;;;5268682;28;20043;-38
2024/01/18 05:16:54;;;;;;;23.42;12.85;;;2.60;1.00;;;;;;5267135;28;20327;-37
2024/01/18 05:19:25;;;;;;;27.50;13.10;;;2.80;1.00;;;;;;5267456;28;20024;-37
2024/01/18 05:21:59;;;;;;;22.45;12.90;;;2.70;1.00;;;;;;5266781;28;20366;-37
2024/01/18 05:24:36;;;;;;;;;;;2.80;1.00;;;;;;5253090;28;20024;-37
2024/01/18 05:27:12;;;;;;;24.65;13.57;;;2.80;1.00;;;;;;5270937;28;19908;-37
2024/01/18 05:29:48;;;;;;;25.92;13.05;;;2.80;1.00;;;;;;5269894;28;20036;-36
2024/01/18 05:32:21;;;;;;;27.95;13.30;;;2.80;1.00;;;;;;5271408;28;20324;-37
2024/01/18 05:34:53;;;;;;;34.78;14.80;;;2.70;1.00;;;;;;5261247;28;20036;-37
2024/01/18 05:37:24;;;;;;;31.15;15.00;;;2.40;1.00;;;;;;5264866;28;20036;-36
2024/01/18 05:39:57;;;;;;;45.00;19.02;;;2.40;1.00;;;;;;5271252;28;20034;-35
2024/01/18 05:42:29;;;;;;;34.25;17.20;;;2.40;1.00;;;;;;5271537;28;20040;-35
2024/01/18 05:45:00;;;;;;;35.30;17.35;;;2.50;1.00;;;;;;5251015;28;20035;-35
2024/01/18 05:47:32;;;;;;;38.30;16.63;;;2.70;1.00;;;;;;5250631;28;20051;-35
2024/01/18 05:50:07;;;;;;;51.35;18.23;;;2.80;1.00;;;;;;5246298;28;20033;-46
2024/01/18 05:52:38;;;;;;;40.60;16.23;;;2.70;1.00;;;;;;5264708;28;20032;-52
2024/01/18 05:55:10;;;;;;;36.50;18.25;;;2.80;1.00;;;;;;5251645;28;20030;-48
2024/01/18 05:57:41;;;;;;;38.80;16.90;;;2.90;1.00;;;;;;5268611;28;20028;-46
2024/01/18 06:00:15;;;;;;;34.03;15.32;;;3.00;1.00;;;;;;5261681;28;20035;-47
2024/01/18 06:02:46;;;;;;;29.23;13.85;;;3.10;1.00;;;;;;5264904;28;20024;-47
2024/01/18 06:05:20;;;;;;;24.38;12.32;;;2.90;1.00;;;;;;5269048;28;20303;-47
2024/01/18 06:07:52;;;;;;;24.92;13.25;;;2.80;1.00;;;;;;5251635;28;20020;-45
2024/01/18 06:10:23;;;;;;;22.58;12.02;;;2.80;1.00;;;;;;5285331;28;20031;-48
2024/01/18 06:12:54;;;;;;;24.65;12.57;;;2.80;1.00;;;;;;5254826;28;20320;-47
2024/01/18 06:15:28;;;;;;;32.13;13.13;;;2.80;1.00;;;;;;5261057;28;20340;-41
2024/01/18 06:18:03;;;;;;;25.20;13.30;;;2.80;1.00;;;;;;5268230;28;20444;-42
2024/01/18 06:20:35;;;;;;;30.13;14.70;;;2.90;1.00;;;;;;5268791;28;20030;-44
2024/01/18 06:23:06;;;;;;;31.38;14.52;;;2.90;1.00;;;;;;5265982;28;20032;-45
2024/01/18 06:25:41;;;;;;;30.00;15.77;;;2.80;1.00;;;;;;5268558;28;20024;-43
2024/01/18 06:28:12;;;;;;;33.47;15.02;;;2.80;1.00;;;;;;5269567;28;20400;-44
2024/01/18 06:30:46;;;;;;;27.23;15.23;;;2.90;1.00;;;;;;5266271;28;20059;-47
2024/01/18 06:33:20;;;;;;;29.38;15.05;;;2.90;1.00;;;;;;5249744;28;20036;-48
2024/01/18 06:35:51;;;;;;;33.58;16.15;;;3.10;1.00;;;;;;5269435;28;20332;-50
2024/01/18 06:38:24;;;;;;;30.75;15.68;;;3.30;1.00;;;;;;5250811;28;20237;-56
2024/01/18 06:40:59;;;;;;;41.33;17.00;;;3.30;1.00;;;;;;5252502;28;20024;-47
2024/01/18 06:43:33;;;;;;;33.78;15.13;;;3.40;1.00;;;;;;5272350;28;20058;-45
2024/01/18 06:46:04;;;;;;;26.77;14.95;;;3.30;1.00;;;;;;5270346;28;20016;-45
2024/01/18 06:48:35;;;;;;;30.38;15.73;;;3.30;1.00;;;;;;5265813;28;20216;-45
2024/01/18 06:51:07;;;;;;;35.92;16.60;;;3.30;1.00;;;;;;5252264;28;20336;-45
2024/01/18 06:53:39;;;;;;;33.72;16.60;;;3.30;1.00;;;;;;5229831;28;20032;-43
2024/01/18 06:56:12;;;;;;;28.57;15.23;;;3.20;1.00;;;;;;5254797;28;20070;-44
2024/01/18 06:58:49;;;;;;;32.03;16.05;;;3.20;1.00;;;;;;5262906;28;20039;-44
2024/01/18 07:01:26;;;;;;;34.05;17.00;;;3.30;1.00;;;;;;5261611;28;20305;-43
2024/01/18 07:03:58;;;;;;;34.22;16.70;;;3.30;1.00;;;;;;5264328;28;20031;-45
2024/01/18 07:06:31;;;;;;;34.20;16.35;;;3.30;1.00;;;;;;5255139;28;20028;-45
2024/01/18 07:09:03;;;;;;;36.55;17.20;;;3.30;1.00;;;;;;5269900;28;20051;-47
2024/01/18 07:11:39;;;;;;;34.78;18.02;;;3.50;1.00;;;;;;5271848;28;20046;-53
2024/01/18 07:14:13;;;;;;;33.92;16.83;;;3.60;1.00;;;;;;5263381;28;20040;-48
2024/01/18 07:16:44;;;;;;;;;;;3.70;1.00;;;;;;5265543;28;20226;-50
2024/01/18 07:19:15;;;;;;;33.55;16.27;;;3.60;1.00;;;;;;5250860;28;20128;-48
2024/01/18 07:21:47;;;;;;;35.40;17.50;;;3.50;1.00;;;;;;5267504;28;20028;-50
2024/01/18 07:24:18;;;;;;;35.55;19.02;;;3.20;1.00;;;;;;5254271;28;20077;-48
2024/01/18 07:26:49;;;;;;;34.05;18.15;;;3.10;1.00;;;;;;5270991;28;20028;-50
2024/01/18 07:29:21;;;;;;;41.78;18.80;;;3.10;1.00;;;;;;5267044;28;20024;-50
2024/01/18 07:31:54;;;;;;;39.47;19.65;;;3.10;1.00;;;;;;5263213;28;20042;-56
2024/01/18 07:34:27;;;;;;;45.85;20.15;;;3.00;1.00;;;;;;5261207;28;20051;-50
2024/01/18 07:37:01;;;;;;;39.47;20.50;;;2.90;1.00;;;;;;5270274;28;20036;-51
2024/01/18 07:39:34;;;;;;;42.83;21.58;;;2.90;1.00;;;;;;5261908;28;20375;-50
2024/01/18 07:42:10;;;;;;;38.25;19.20;;;2.90;1.00;;;;;;5267762;28;20320;-49
2024/01/18 07:44:46;;;;;;;37.25;18.55;;;2.90;1.00;;;;;;5270395;28;20024;-49
2024/01/18 07:47:18;;;;;;;39.60;18.30;;;3.00;1.00;;;;;;5262415;28;20051;-49
2024/01/18 07:49:50;;;;;;;45.50;20.60;;;3.00;1.00;;;;;;5269713;28;20111;-49
2024/01/18 07:52:21;;;;;;;41.67;19.50;;;3.10;1.00;;;;;;5268148;28;20035;-51
2024/01/18 07:54:55;;;;;;;38.05;19.42;;;3.20;1.00;;;;;;5270651;28;20046;-51
2024/01/18 07:57:29;;;;;;;39.42;19.27;;;3.20;1.00;;;;;;5267601;28;20048;-51
2024/01/18 08:00:14;;;;;;;37.90;19.33;;;3.30;1.00;;;;;;5253422;28;20024;-51
2024/01/18 08:02:47;;;;;;;;;;;3.30;1.00;;;;;;5263292;28;20030;-51
2024/01/18 08:05:19;;;;;;;38.53;20.92;;;3.40;1.00;;;;;;5254752;28;19919;-52
2024/01/18 08:07:55;;;;;;;45.50;19.77;;;3.50;1.00;;;;;;5270546;28;20024;-52
2024/01/18 08:10:29;;;;;;;37.67;18.08;;;3.60;1.00;;;;;;5270110;28;20250;-52
2024/01/18 08:13:01;;;;;;;38.58;19.25;;;3.70;1.00;;;;;;5266610;28;20031;-49
2024/01/18 08:15:35;;;;;;;35.13;17.25;;;3.90;1.00;;;;;;5249907;28;20275;-47
2024/01/18 08:18:09;;;;;;;37.03;19.17;;;4.00;1.00;;;;;;5252046;28;20024;-48
2024/01/18 08:20:41;;;;;;;44.30;20.15;;;3.90;1.00;;;;;;5252409;28;20047;-48
2024/01/18 08:23:12;;;;;;;43.85;20.08;;;4.00;1.00;;;;;;5263215;28;20030;-48
2024/01/18 08:25:47;;;;;;;40.13;20.35;;;4.00;1.00;;;;;;5246628;28;20038;-49
2024/01/18 08:28:22;;;;;;;35.15;20.08;;;4.00;1.00;;;;;;5270489;28;20362;-49
2024/01/18 08:30:53;;;;;;;;;;;4.10;1.00;;;;;;5267862;28;20032;-49
2024/01/18 08:33:28;;;;;;;33.38;17.60;;;4.20;1.00;;;;;;5243685;28;19912;-49
2024/01/18 08:36:00;;;;;;;30.05;17.77;;;4.20;1.00;;;;;;5261582;28;20036;-48
2024/01/18 08:38:34;;;;;;;38.60;18.55;;;4.40;1.00;;;;;;5264813;28;20350;-48
2024/01/18 08:41:05;;;;;;;37.23;19.63;;;4.60;1.00;;;;;;5263971;28;20020;-50
2024/01/18 08:43:36;;;;;;;34.08;18.67;;;4.60;1.00;;;;;;5263870;28;20023;-50
2024/01/18 08:46:11;;;;;;;40.88;18.23;;;4.70;1.00;;;;;;5221779;28;20036;-49
2024/01/18 08:48:51;;;;;;;34.25;18.17;;;4.80;1.00;;;;;;5246358;28;20050;-51
2024/01/18 08:51:27;;;;;;;36.88;18.25;;;4.80;1.00;;;;;;5248798;28;20036;-48
2024/01/18 08:53:58;;;;;;;37.33;18.27;;;4.80;1.00;;;;;;5237484;28;20043;-48
2024/01/18 08:56:31;;;;;;;39.42;21.45;;;4.70;1.00;;;;;;5237064;28;20051;-47
2024/01/18 08:59:02;;;;;;;40.05;20.52;;;4.50;1.00;;;;;;5246593;28;20048;-49
2024/01/18 09:01:36;;;;;;;37.13;19.52;;;4.50;1.00;;;;;;5242284;28;20267;-49
2024/01/18 09:04:07;;;;;;;39.13;21.00;;;4.70;1.00;;;;;;5240453;28;20044;-49
2024/01/18 09:06:39;;;;;;;35.25;19.02;;;4.90;1.00;;;;;;5244975;28;20041;-49
2024/01/18 09:09:13;;;;;;;34.78;20.02;;;5.10;1.00;;;;;;5245605;28;20036;-49
2024/01/18 09:11:44;;;;;;;;;;;5.30;1.00;;;;;;5248766;28;20035;-47
2024/01/18 09:14:15;;;;;;;36.40;19.02;;;5.50;1.00;;;;;;5238757;28;19995;-49
2024/01/18 09:16:53;;;;;;;39.05;20.55;;;5.80;1.00;;;;;;5232787;28;20028;-49
2024/01/18 09:19:35;;;;;;;32.80;19.52;;;5.90;1.00;;;;;;5258906;28;20310;-48
2024/01/18 09:22:07;;;;;;;32.30;17.92;;;5.90;1.00;;;;;;5244285;28;20028;-50
2024/01/18 09:24:44;;;;;;;37.72;19.70;;;6.00;1.00;;;;;;5245928;28;20340;-49
2024/01/18 09:27:16;;;;;;;32.83;18.23;;;6.00;1.00;;;;;;5238954;28;20028;-49
2024/01/18 09:29:49;;;;;;;35.00;18.83;;;5.70;1.00;;;;;;5248236;28;20029;-49
2024/01/18 09:32:20;;;;;;;33.95;19.38;;;5.70;1.00;;;;;;5245627;28;20018;-51
2024/01/18 09:34:52;;;;;;;33.10;18.15;;;5.70;1.00;;;;;;5232421;28;20054;-49
2024/01/18 09:37:23;;;;;;;30.60;16.80;;;5.80;1.00;;;;;;5230735;28;20347;-51
2024/01/18 09:39:54;;;;;;;33.10;17.50;;;5.90;1.00;;;;;;5249318;28;20020;-51
2024/01/18 09:42:33;;;;;;;28.00;17.33;;;5.90;1.00;;;;;;5248228;28;20028;-51
2024/01/18 09:45:09;;;;;;;29.55;16.98;;;6.00;1.00;;;;;;5237285;28;20324;-53
2024/01/18 09:47:44;;;;;;;34.88;16.80;;;6.10;1.00;;;;;;5236029;28;20051;-51
2024/01/18 09:50:19;;;;;;;39.35;20.98;;;6.00;1.00;;;;;;5234757;28;20055;-49
2024/01/18 09:52:51;;;;;;;45.88;22.70;;;5.70;1.00;;;;;;5249114;28;20044;-48
2024/01/18 09:55:22;;;;;;;43.05;20.73;;;5.60;1.00;;;;;;5239007;28;20035;-49
2024/01/18 09:58:03;;;;;;;43.05;24.60;;;5.60;1.00;;;;;;5244449;28;20058;-50
2024/01/18 10:00:39;;;;;;;43.42;23.65;;;5.80;1.00;;;;;;5244616;28;20037;-50
2024/01/18 10:03:10;;;;;;;47.15;23.45;;;6.00;1.00;;;;;;5241500;28;20032;-49
2024/01/18 10:05:43;;;;;;;45.58;24.35;;;6.20;1.00;;;;;;5242116;28;20043;-50
2024/01/18 10:08:16;;;;;;;41.55;23.58;;;6.30;1.00;;;;;;5245544;28;20035;-49
2024/01/18 10:10:48;;;;;;;50.63;22.70;;;6.40;1.00;;;;;;5232993;28;20028;-49
2024/01/18 10:13:19;;;;;;;36.90;22.17;;;6.40;1.00;;;;;;5239224;28;20605;-49
2024/01/18 10:15:50;;;;;;;34.63;19.73;;;6.40;1.00;;;;;;5244098;28;20028;-49
2024/01/18 10:18:27;;;;;;;38.60;20.15;;;6.50;1.00;;;;;;5245842;28;20020;-48
2024/01/18 10:21:00;;;;;;;37.80;17.60;;;6.40;1.00;;;;;;5249613;28;20033;-53
2024/01/18 10:23:37;;;;;;;27.40;15.43;;;6.20;1.00;;;;;;5251983;28;20025;-47
2024/01/18 10:26:10;;;;;;;23.75;14.32;;;6.30;1.00;;;;;;5273569;28;20032;-49
2024/01/18 10:28:41;;;;;;;32.22;16.98;;;6.50;1.00;;;;;;5260517;28;20028;-48
2024/01/18 10:31:15;;;;;;;30.52;15.13;;;6.60;1.00;;;;;;5250846;28;20332;-48
2024/01/18 10:33:49;;;;;;;29.88;16.35;;;6.70;1.00;;;;;;5259729;28;20036;-48
2024/01/18 10:36:21;;;;;;;27.67;13.82;;;6.50;1.00;;;;;;5267339;28;20047;-48
2024/01/18 10:38:52;;;;;;;23.80;14.57;;;6.40;1.00;;;;;;5254697;28;20051;-48
2024/01/18 10:41:23;;;;;;;23.20;13.82;;;6.70;1.00;;;;;;5272378;28;20044;-47
2024/01/18 10:43:59;;;;;;;22.50;13.18;;;6.90;1.00;;;;;;5270964;28;20340;-46
2024/01/18 10:46:30;;;;;;;24.08;14.15;;;7.10;1.00;;;;;;5292957;27;20027;-46
2024/01/18 10:49:08;;;;;;;22.55;12.48;;;7.40;1.00;;;;;;5269695;28;20024;-46
2024/01/18 10:51:42;;;;;;;21.55;13.45;;;7.60;1.00;;;;;;5271480;28;20027;-45
2024/01/18 10:54:17;;;;;;;25.13;14.48;;;7.80;99.90;;;;;;5264519;28;20036;-48
2024/01/18 10:56:53;;;;;;;22.55;13.35;;;7.90;99.90;;;;;;5282318;28;20039;-45
2024/01/18 10:59:24;;;;;;;19.92;12.43;;;7.90;99.90;;;;;;5276580;28;20240;-45
2024/01/18 11:01:59;;;;;;;24.13;13.95;;;8.10;99.90;;;;;;5289180;27;20266;-45
2024/01/18 11:04:34;;;;;;;23.30;12.98;;;8.40;74.90;;;;;;5290992;28;20035;-46
2024/01/18 11:07:07;;;;;;;23.45;14.48;;;8.60;1.00;;;;;;5270269;28;20035;-46
2024/01/18 11:09:39;;;;;;;24.73;14.35;;;8.70;1.00;;;;;;5287521;28;20305;-46
2024/01/18 11:12:16;;;;;;;27.75;16.10;;;8.60;99.90;;;;;;5291481;28;20028;-43
2024/01/18 11:14:48;;;;;;;24.35;14.23;;;8.50;1.00;;;;;;5286120;27;20031;-43
2024/01/18 11:17:26;;;;;;;22.20;14.07;;;8.60;1.00;;;;;;5276753;28;20035;-45
2024/01/18 11:20:00;;;;;;;26.08;14.60;;;8.70;1.00;;;;;;5275094;28;20049;-44
2024/01/18 11:22:36;;;;;;;26.58;15.88;;;8.70;1.00;;;;;;5293294;28;20027;-46
2024/01/18 11:25:17;;;;;;;26.58;16.05;;;8.70;1.00;;;;;;5279537;28;20053;-44
2024/01/18 11:27:53;;;;;;;30.92;16.10;;;8.90;99.90;;;;;;5279415;28;20227;-45
2024/01/18 11:30:40;;;;;;;28.33;15.77;;;8.90;1.00;;;;;;5290769;28;20050;-45
2024/01/18 11:33:13;;;;;;;;;;;8.80;1.00;;;;;;5292967;28;20353;-45
2024/01/18 11:35:44;;;;;;;26.50;15.90;;;8.90;1.00;;;;;;5263737;28;19912;-45
2024/01/18 11:38:28;;;;;;;25.92;14.13;;;9.00;99.90;;;;;;5284483;28;20036;-45
2024/01/18 11:41:09;;;;;;;25.73;15.45;;;9.50;99.90;;;;;;5293332;28;20070;-44
2024/01/18 11:44:10;;;;;;;31.90;15.38;;;10.00;1.00;;;;;;5293362;28;20226;-43
2024/01/18 11:46:47;;;;;;;29.75;14.88;;;11.20;1.00;;;;;;5281016;28;20323;-43
2024/01/18 11:49:24;;;;;;;26.83;16.23;;;12.30;1.00;;;;;;5289266;28;20015;-43
2024/01/18 11:52:00;;;;;;;25.95;15.88;;;13.10;99.90;;;;;;5273399;28;20316;-41
2024/01/18 11:54:34;;;;;;;25.08;15.43;;;14.10;1.00;;;;;;5284860;28;20327;-40
2024/01/18 11:57:12;;;;;;;25.15;14.43;;;14.60;1.00;;;;;;5287923;28;20227;-40
2024/01/18 11:59:52;;;;;;;21.73;13.88;;;15.50;1.00;;;;;;5290662;28;20027;-39
2024/01/18 12:02:32;;;;;;;22.30;14.10;;;16.60;99.90;;;;;;5289575;28;20033;-38
2024/01/18 12:05:04;;;;;;;22.48;14.32;;;17.20;1.00;;;;;;5282978;28;20053;-39
2024/01/18 12:07:44;;;;;;;21.88;12.88;;;17.70;1.00;;;;;;5284647;28;20049;-39
2024/01/18 12:10:17;;;;;;;23.90;14.02;;;17.00;1.00;;;;;;5285917;28;20053;-38
2024/01/18 12:12:50;;;;;;;23.15;12.77;;;17.20;1.00;;;;;;5291960;28;20032;-38
2024/01/18 12:15:24;;;;;;;17.70;12.95;;;17.80;1.00;;;;;;5277902;28;20361;-39
2024/01/18 12:18:01;;;;;;;19.02;12.20;;;17.10;1.00;;;;;;5273654;28;20043;-39
2024/01/18 12:20:36;;;;;;;22.27;13.55;;;16.00;1.00;;;;;;5290762;28;20040;-40
2024/01/18 12:23:15;;;;;;;17.35;11.40;;;14.80;1.00;;;;;;5291155;28;20036;-40
2024/01/18 12:25:48;;;;;;;19.08;11.18;;;14.50;1.00;;;;;;5279237;28;20028;-41
2024/01/18 12:28:19;;;;;;;19.08;11.93;;;15.20;1.00;;;;;;5293135;28;20027;-41
2024/01/18 12:31:00;;;;;;;17.02;11.82;;;16.10;1.00;;;;;;5288424;28;20027;-44
2024/01/18 12:33:33;;;;;;;18.13;12.38;;;16.40;1.00;;;;;;5291458;28;20040;-45
2024/01/18 12:36:07;;;;;;;15.95;11.25;;;17.20;1.00;;;;;;5280957;28;20031;-43
2024/01/18 12:38:39;;;;;;;19.20;11.77;;;18.00;1.00;;;;;;5291637;28;20185;-45
2024/01/18 12:41:12;;;;;;;18.17;11.65;;;18.40;1.00;;;;;;5274329;28;20031;-45
2024/01/18 12:43:45;;;;;;;16.30;11.30;;;18.50;1.00;;;;;;5273763;28;20031;-47
2024/01/18 12:46:19;;;;;;;16.92;11.45;;;18.60;1.00;;;;;;5275152;28;20416;-54
2024/01/18 12:48:51;;;;;;;15.98;11.27;;;19.00;1.00;;;;;;5286183;28;20026;-65
2024/01/18 12:51:23;;;;;;;16.52;10.82;;;19.60;1.00;;;;;;5290891;28;20031;-56
2024/01/18 12:53:55;;;;;;;14.82;10.27;;;19.80;99.90;;;;;;5292239;28;20360;-57
2024/01/18 12:56:27;;;;;;;17.67;11.32;;;18.80;99.90;;;;;;5288697;28;20058;-54
2024/01/18 12:59:00;;;;;;;18.98;12.32;;;18.30;99.90;;;;;;5288841;28;20370;-55
2024/01/18 13:01:33;;;;;;;17.10;11.18;;;17.10;99.90;;;;;;5279141;28;20242;-57
2024/01/18 13:04:22;;;;;;;17.20;11.38;;;15.80;99.90;;;;;;5272018;28;20030;-57
2024/01/18 13:06:58;;;;;;;17.30;11.32;;;14.80;99.90;;;;;;5280441;28;20041;-59
2024/01/18 13:09:30;;;;;;;17.30;11.02;;;14.80;99.90;;;;;;5268117;28;20030;-59
2024/01/18 13:12:05;;;;;;;14.30;9.98;;;15.90;1.00;;;;;;5276728;28;20369;-56
2024/01/18 13:14:37;;;;;;;17.60;10.25;;;17.50;1.00;;;;;;5269577;28;20023;-57
2024/01/18 13:17:09;;;;;;;14.30;10.75;;;18.40;1.00;;;;;;5283887;28;20049;-60
2024/01/18 13:19:44;;;;;;;14.63;9.57;;;18.60;1.00;;;;;;5288073;28;20027;-55
2024/01/18 13:22:15;;;;;;;14.68;9.73;;;18.10;99.90;;;;;;5271500;28;20023;-55